• Join FlightAware (Why Join?)
  • Login
  • US Flag 
06:24AM EDT


 

Airport Tracker/Info


-or-


 

Live Flight TrackerFlight Track Log ✈ KLM1818 ✈ 29-Feb-2012 ✈ EDDT / TXL - EHAM / AMS

Flight Track Log - Related Links

Times and Time Zones

All times are in EST time to prevent confusion due to time zone crossing. See the KLM1818 flight status page for this flight to view local times or setup timezone preferences in your user account.

Time Position Orientation Groundspeed Altitude Reporting Facility
EST Latitude Longitude Course Direction KTS MPH feet Rate Location/Type
12:05AM 52.5621 12.7018 270° West  Level Estimated
12:06AM 52.5622 12.6011 270° West  Level Estimated
12:07AM 52.5622 12.5004 270° West  Level Estimated
12:08AM 52.5622 12.3997 270° West  Level Estimated
12:09AM 52.5621 12.2989 270° West  Level Estimated
12:10AM 52.5619 12.1982 270° West  Level Estimated
12:11AM 52.5615 12.0975 270° West  Level Estimated
12:12AM 52.5611 11.9967 270° West  Level Estimated
12:13AM 52.5607 11.8960 270° West  Level Estimated
12:14AM 52.5601 11.7953 269° West  Level Estimated
12:15AM 52.5595 11.6946 269° West  Level Estimated
12:16AM 52.5587 11.5939 269° West  Level Estimated
12:17AM 52.5579 11.4932 269° West  Level Estimated
12:18AM 52.5570 11.3925 269° West  Level Estimated
12:19AM 52.5560 11.2918 269° West  Level Estimated
12:20AM 52.5550 11.1911 269° West  Level Estimated
12:21AM 52.5538 11.0904 269° West  Level Estimated
12:22AM 52.5526 10.9897 269° West  Level Estimated
12:23AM 52.5512 10.8890 269° West  Level Estimated
12:24AM 52.5498 10.7883 269° West  Level Estimated
12:25AM 52.5483 10.6877 269° West  Level Estimated
12:26AM 52.5467 10.5870 268° West  Level Estimated
12:27AM 52.5450 10.4864 268° West  Level Estimated
12:28AM 52.5433 10.3857 268° West  Level Estimated
12:29AM 52.5414 10.2851 268° West  Level Estimated
12:30AM 52.5395 10.1844 268° West  Level Estimated
12:31AM 52.5375 10.0838 268° West  Level Estimated
12:32AM 52.5354 9.9832 268° West  Level Estimated
12:33AM 52.5332 9.8826 268° West  Level Estimated
12:34AM 52.5309 9.7820 268° West  Level Estimated
12:35AM 52.5286 9.6814 268° West  Level Estimated
12:36AM 52.5262 9.5809 268° West  Level Estimated
12:37AM 52.5236 9.4803 268° West  Level Estimated
12:38AM 52.5210 9.3798 268° West  Level Estimated
12:39AM 52.5183 9.2792 267° West  Level Estimated
12:40AM 52.5145 9.1436 267° West  Level Estimated
12:41AM 52.5106 9.0080 267° West  Level Estimated
12:42AM 52.5065 8.8724 267° West  Level Estimated
12:43AM 52.5023 8.7369 267° West  Level Estimated
12:44AM 52.4979 8.6014 267° West  Level Estimated
12:45AM 52.4934 8.4659 267° West  Level Estimated
12:46AM 52.4887 8.3304 267° West  Level Estimated
12:47AM 52.4838 8.1950 267° West  Level Estimated
12:48AM 52.4788 8.0596 266° West  Level Estimated
12:49AM 52.4736 7.9242 266° West  Level Estimated
12:50AM 52.4683 7.7889 266° West  Level Estimated
12:51AM 52.4628 7.6536 266° West  Level Estimated
12:52AM 52.4572 7.5183 266° West  Level Estimated
12:53AM 52.4514 7.3831 266° West  Level Estimated
12:54AM 52.4455 7.2479 266° West  Level Estimated
12:55AM 52.4394 7.1127 266° West  Level Estimated
12:56AM 52.4332 6.9776 266° West  Level Estimated
12:57AM 52.4268 6.8425 266° West  Level Estimated
12:58AM 52.4202 6.7074 265° West  Level Estimated
12:59AM 52.4135 6.5724 265° West  Level Estimated
01:00AM 52.4067 6.4375 265° West  Level Estimated
01:01AM 52.3996 6.3025 265° West  Level Estimated
01:02AM 52.3935 6.1861 265° West  Level Estimated
01:03AM 52.3872 6.0698 265° West  Level Estimated
01:04AM 52.3808 5.9534 265° West  Level Estimated
01:05AM 52.3742 5.8371 265° West  Level Estimated
01:06AM 52.3676 5.7208 265° West  Level Estimated
01:07AM 52.3609 5.6046 265° West  Level Estimated
01:08AM 52.3540 5.4884 264° West  Level Estimated
01:09AM 52.3470 5.3723 264° West  Level Estimated
01:10AM 52.3400 5.2561 264° West  Level Estimated
01:11AM 52.3327 5.1400 264° West  Level Estimated
01:12AM 52.3254 5.0240 264° West  Level Estimated
01:13AM 52.3180 4.9080 264° West  Level Estimated
01:14AM 52.3105 4.7920 264° West  Level Estimated
01:15AM 52.3028 4.6761 84° East  Level Estimated
01:16AM 52.3105 4.7920 84° East  Level Estimated